Time;durP1;ratioP1;P1;durP2;ratioP2;P2;SDS_P1;SDS_P2;PMS_P1;PMS_P2;Temp;Humidity;BMP_temperature;BMP_pressure;BME280_temperature;BME280_humidity;BME280_pressure;Samples;Min_cycle;Max_cycle;Signal;HPM_P1;HPM_P2
2022/05/30 00:02:11;;;;;;;;;10.33;10.33;22.80;46.30;;;;;;4996904;28;8791;-79
2022/05/30 00:04:38;;;;;;;;;9.33;9.33;22.80;46.30;;;;;;4996598;28;11578;-79
2022/05/30 00:07:07;;;;;;;;;8.67;8.67;22.70;46.30;;;;;;4996651;28;11468;-79
2022/05/30 00:09:34;;;;;;;;;8.00;8.00;22.50;46.30;;;;;;4996708;28;11480;-79
2022/05/30 00:12:01;;;;;;;;;8.00;8.00;22.40;46.20;;;;;;4995635;28;8839;-78
2022/05/30 00:14:27;;;;;;;;;10.33;10.33;22.50;46.50;;;;;;4997028;28;11517;-78
2022/05/30 00:16:52;;;;;;;;;5.67;5.67;22.60;46.20;;;;;;4996406;28;11550;-76
2022/05/30 00:19:18;;;;;;;;;6.67;6.67;22.40;46.20;;;;;;4996552;28;8774;-77
2022/05/30 00:21:44;;;;;;;;;7.33;7.33;22.40;46.60;;;;;;4996733;28;8779;-78
2022/05/30 00:24:10;;;;;;;;;7.00;7.00;22.40;46.90;;;;;;4996621;28;9469;-77
2022/05/30 00:26:37;;;;;;;;;9.00;9.00;22.50;47.00;;;;;;4996631;28;9488;-77
2022/05/30 00:29:04;;;;;;;;;9.00;9.00;22.50;47.20;;;;;;4996394;28;11468;-78
2022/05/30 00:31:31;;;;;;;;;8.00;8.00;22.60;48.10;;;;;;4996517;28;8771;-78
2022/05/30 00:33:57;;;;;;;;;8.33;8.33;22.60;48.40;;;;;;4996475;28;8803;-79
2022/05/30 00:36:23;;;;;;;;;10.00;10.00;22.40;48.80;;;;;;4996311;28;12165;-78
2022/05/30 00:38:49;;;;;;;;;8.33;8.33;22.40;49.50;;;;;;4996415;28;8787;-78
2022/05/30 00:41:16;;;;;;;;;9.00;9.00;22.40;49.60;;;;;;4995978;28;8940;-78
2022/05/30 00:43:47;;;;;;;;;10.00;10.00;22.30;50.40;;;;;;4995962;28;8807;-79
2022/05/30 00:46:15;;;;;;;;;5.67;5.67;22.20;51.00;;;;;;4996314;28;8797;-78
2022/05/30 00:49:20;;;;;;;;;9.67;9.67;22.20;50.60;;;;;;4995897;28;8786;-78
2022/05/30 00:51:51;;;;;;;;;5.00;5.00;22.20;50.80;;;;;;4954384;28;11553;-78
2022/05/30 00:54:29;;;;;;;;;11.33;11.33;22.10;50.80;;;;;;4939000;28;8799;-79
2022/05/30 00:56:57;;;;;;;;;5.00;5.00;22.10;50.50;;;;;;4955061;28;8779;-79
2022/05/30 00:59:23;;;;;;;;;11.33;11.33;22.10;50.80;;;;;;4954864;28;11472;-77
2022/05/30 01:01:49;;;;;;;;;4.67;4.67;22.10;50.60;;;;;;4954809;28;11630;-76
2022/05/30 01:07:05;;;;;;;;;9.33;9.33;21.90;51.40;;;;;;4954408;28;8767;-79
2022/05/30 01:09:40;;;;;;;;;10.00;10.00;22.00;51.30;;;;;;4954689;28;8771;-79
2022/05/30 01:12:10;;;;;;;;;10.00;10.00;22.00;51.00;;;;;;4954340;28;11516;-78
2022/05/30 01:14:38;;;;;;;;;11.00;11.00;21.90;51.10;;;;;;4954755;28;8802;-78
2022/05/30 01:17:11;;;;;;;;;8.33;8.33;22.00;50.50;;;;;;4954457;28;11500;-79
2022/05/30 01:19:50;;;;;;;;;9.00;9.00;22.00;51.50;;;;;;4954665;28;11548;-79
2022/05/30 01:22:35;;;;;;;;;9.67;9.67;22.00;51.90;;;;;;4963146;28;12170;-79
2022/05/30 01:25:06;;;;;;;;;7.00;7.00;22.00;51.50;;;;;;4976258;28;8903;-79
2022/05/30 01:27:53;;;;;;;;;8.00;8.00;22.00;51.60;;;;;;4975996;28;8777;-79
2022/05/30 01:30:19;;;;;;;;;11.00;11.00;22.00;50.80;;;;;;4975805;28;8809;-79
2022/05/30 01:32:45;;;;;;;;;11.67;11.67;22.00;50.90;;;;;;4975682;28;8820;-78
2022/05/30 01:35:11;;;;;;;;;10.33;10.33;22.00;51.50;;;;;;4983381;28;8786;-79
2022/05/30 01:37:37;;;;;;;;;12.33;12.33;21.90;51.00;;;;;;4995392;28;8803;-79
2022/05/30 01:40:04;;;;;;;;;10.00;10.00;21.90;52.40;;;;;;4995272;28;11645;-79
2022/05/30 01:42:30;;;;;;;;;11.67;11.67;21.90;51.10;;;;;;4995234;28;8893;-79
2022/05/30 01:44:56;;;;;;;;;11.33;11.33;22.00;51.20;;;;;;4995245;28;9468;-79
2022/05/30 01:47:22;;;;;;;;;9.33;9.33;21.90;52.50;;;;;;4995010;28;8861;-79
2022/05/30 01:49:48;;;;;;;;;9.33;9.33;21.80;51.50;;;;;;4995327;28;8877;-79
2022/05/30 01:52:14;;;;;;;;;13.00;13.00;21.80;52.00;;;;;;4994845;28;11531;-79
2022/05/30 01:54:40;;;;;;;;;11.67;11.67;21.90;51.90;;;;;;4994927;28;8802;-79
2022/05/30 01:57:06;;;;;;;;;11.33;11.33;21.90;51.80;;;;;;4994965;28;8775;-79
2022/05/30 01:59:31;;;;;;;;;12.67;12.67;21.80;52.30;;;;;;4995067;28;8795;-79
2022/05/30 02:01:57;;;;;;;;;10.67;10.67;21.70;53.30;;;;;;4994292;28;8810;-79
2022/05/30 02:04:23;;;;;;;;;10.67;10.67;21.80;52.90;;;;;;4994774;28;8819;-79
2022/05/30 02:06:49;;;;;;;;;13.67;13.67;21.70;52.70;;;;;;4994780;28;8860;-78
2022/05/30 02:09:15;;;;;;;;;10.67;10.67;21.80;52.10;;;;;;4995068;28;8771;-79
2022/05/30 02:11:41;;;;;;;;;12.00;12.00;21.90;51.60;;;;;;4995021;28;9518;-79
2022/05/30 02:14:06;;;;;;;;;15.00;15.00;21.90;51.60;;;;;;4994774;28;8872;-79
2022/05/30 02:19:17;;;;;;;;;10.33;10.33;21.90;51.60;;;;;;4994740;28;8771;-77
2022/05/30 02:21:43;;;;;;;;;13.00;13.00;21.90;51.40;;;;;;4994732;28;8798;-78
2022/05/30 02:24:09;;;;;;;;;13.00;13.00;21.90;51.30;;;;;;4994497;28;9464;-78
2022/05/30 02:26:36;;;;;;;;;11.33;11.33;22.00;51.40;;;;;;4994549;28;8783;-78
2022/05/30 02:29:03;;;;;;;;;13.33;13.33;22.00;51.70;;;;;;4994518;28;8791;-78
2022/05/30 02:31:29;;;;;;;;;16.00;16.00;21.90;51.20;;;;;;4994604;28;8813;-78
2022/05/30 02:36:40;;;;;;;;;11.33;11.00;21.90;51.20;;;;;;4994634;28;8747;-77
2022/05/30 02:39:18;;;;;;;;;12.00;12.00;22.00;51.50;;;;;;4994518;28;8783;-76
2022/05/30 02:41:45;;;;;;;;;13.00;13.00;22.00;51.10;;;;;;4994612;28;8821;-78
2022/05/30 02:44:11;;;;;;;;;9.33;9.33;22.00;50.90;;;;;;4994407;28;8829;-78
2022/05/30 02:46:37;;;;;;;;;14.33;14.33;22.00;51.20;;;;;;4994545;28;8858;-77
2022/05/30 02:49:04;;;;;;;;;14.00;14.00;22.00;50.60;;;;;;4994707;28;8802;-77
2022/05/30 02:51:30;;;;;;;;;11.33;11.33;22.00;51.60;;;;;;4994685;28;8787;-78
2022/05/30 02:53:56;;;;;;;;;13.67;13.67;22.10;51.80;;;;;;4994622;28;9479;-77
2022/05/30 02:56:22;;;;;;;;;15.00;14.00;22.10;51.60;;;;;;4995394;28;8775;-79
2022/05/30 02:58:48;;;;;;;;;15.00;15.00;22.10;51.90;;;;;;4994604;28;8801;-77
2022/05/30 03:01:14;;;;;;;;;17.67;17.67;22.10;51.30;;;;;;4994295;28;8790;-77
2022/05/30 03:03:41;;;;;;;;;12.33;12.33;22.10;52.30;;;;;;4994287;28;8880;-78
2022/05/30 03:06:07;;;;;;;;;18.00;18.00;22.00;52.60;;;;;;4994557;28;8848;-78
2022/05/30 03:08:33;;;;;;;;;17.67;17.67;21.90;53.00;;;;;;4994307;28;9343;-78
2022/05/30 03:10:59;;;;;;;;;18.67;18.67;21.80;53.30;;;;;;4993367;28;8846;-78
2022/05/30 03:13:25;;;;;;;;;19.00;19.00;21.90;52.90;;;;;;4994192;28;8881;-78
2022/05/30 03:15:51;;;;;;;;;17.00;17.00;21.90;52.50;;;;;;4997663;28;8791;-78
2022/05/30 03:18:17;;;;;;;;;17.00;17.00;22.10;51.90;;;;;;4997603;28;8822;-80
2022/05/30 03:20:43;;;;;;;;;14.00;14.00;22.10;51.40;;;;;;4996577;28;8802;-78
2022/05/30 03:23:08;;;;;;;;;18.67;18.67;22.10;51.50;;;;;;4997435;28;8814;-78
2022/05/30 03:25:35;;;;;;;;;16.67;16.67;22.00;51.60;;;;;;4997506;28;8802;-78
2022/05/30 03:28:00;;;;;;;;;12.00;12.00;21.80;52.60;;;;;;4997716;28;8802;-78
2022/05/30 03:30:27;;;;;;;;;18.00;18.00;21.80;52.40;;;;;;4997473;28;8771;-79
2022/05/30 03:32:53;;;;;;;;;16.00;16.00;21.90;52.40;;;;;;4997504;28;8801;-77
2022/05/30 03:35:19;;;;;;;;;16.00;16.00;21.90;52.20;;;;;;4997428;28;8779;-77
2022/05/30 03:37:46;;;;;;;;;20.00;20.00;21.90;52.20;;;;;;4997338;28;8885;-77
2022/05/30 03:40:15;;;;;;;;;20.33;20.33;22.10;52.10;;;;;;4996018;28;8783;-77
2022/05/30 03:42:41;;;;;;;;;16.00;16.00;22.10;51.70;;;;;;4979038;28;8920;-77
2022/05/30 03:45:08;;;;;;;;;17.33;17.33;22.20;52.20;;;;;;4977843;28;8811;-78
2022/05/30 03:47:39;;;;;;;;;15.33;15.33;22.20;51.70;;;;;;4977881;28;8788;-78
2022/05/30 03:50:08;;;;;;;;;15.67;15.67;22.30;51.50;;;;;;4977676;28;8790;-79
2022/05/30 03:52:34;;;;;;;;;20.67;20.67;22.30;51.00;;;;;;4977593;28;9423;-78
2022/05/30 03:55:05;;;;;;;;;15.33;15.33;22.20;50.80;;;;;;4977658;28;8781;-78
2022/05/30 03:57:31;;;;;;;;;13.33;13.33;22.10;50.40;;;;;;4977542;28;8854;-79
2022/05/30 03:59:56;;;;;;;;;17.33;17.33;22.10;50.60;;;;;;4977573;28;8782;-78
2022/05/30 04:02:23;;;;;;;;;19.67;18.33;22.10;51.00;;;;;;4977480;28;8765;-78
2022/05/30 04:04:48;;;;;;;;;18.00;18.00;22.20;51.00;;;;;;4977588;28;8868;-78
2022/05/30 04:07:15;;;;;;;;;15.00;15.00;22.10;51.00;;;;;;4977354;28;8883;-78
2022/05/30 04:09:40;;;;;;;;;17.33;17.33;22.00;51.70;;;;;;4977639;28;8781;-78
2022/05/30 04:12:07;;;;;;;;;21.67;21.67;21.90;52.70;;;;;;4977235;28;9487;-78
2022/05/30 04:14:32;;;;;;;;;19.00;18.33;22.00;51.70;;;;;;4977401;28;8770;-77
2022/05/30 04:16:59;;;;;;;;;20.33;20.33;22.10;52.00;;;;;;4977033;28;8995;-78
2022/05/30 04:19:25;;;;;;;;;24.00;24.00;22.30;51.40;;;;;;4977036;28;8770;-78
2022/05/30 04:21:51;;;;;;;;;21.67;21.67;22.40;51.00;;;;;;4977067;28;8863;-78
2022/05/30 04:24:16;;;;;;;;;21.00;21.00;22.60;50.30;;;;;;4977027;28;8820;-78
2022/05/30 04:26:43;;;;;;;;;19.00;19.00;22.70;50.00;;;;;;4976130;28;8789;-78
2022/05/30 04:29:09;;;;;;;;;17.67;17.67;22.80;49.80;;;;;;4976956;28;8809;-78
2022/05/30 04:31:36;;;;;;;;;14.00;14.00;22.80;49.70;;;;;;4979109;28;8874;-78
2022/05/30 04:34:02;;;;;;;;;15.00;15.00;22.80;50.10;;;;;;4996260;28;8857;-78
2022/05/30 04:36:28;;;;;;;;;14.33;14.33;22.70;50.00;;;;;;4996583;28;8787;-79
2022/05/30 04:38:53;;;;;;;;;21.33;20.33;22.80;50.50;;;;;;4994169;28;8779;-78
2022/05/30 04:41:19;;;;;;;;;18.67;18.67;22.80;50.20;;;;;;5001151;28;9508;-78
2022/05/30 04:43:45;;;;;;;;;18.33;18.33;22.80;50.70;;;;;;4993917;28;8924;-78
2022/05/30 04:46:19;;;;;;;;;16.33;16.33;22.70;49.50;;;;;;4976912;28;8781;-78
2022/05/30 04:48:46;;;;;;;;;18.67;18.67;22.70;50.00;;;;;;4994667;28;8802;-79
2022/05/30 04:51:12;;;;;;;;;17.00;17.00;22.70;51.40;;;;;;4995948;28;8759;-77
2022/05/30 04:53:40;;;;;;;;;20.33;20.33;22.80;50.40;;;;;;4992068;28;8817;-79
2022/05/30 04:56:09;;;;;;;;;22.33;22.33;22.80;50.10;;;;;;4993043;28;8782;-78
2022/05/30 04:58:36;;;;;;;;;20.33;20.33;22.90;49.50;;;;;;5011275;28;8775;-78
2022/05/30 05:01:08;;;;;;;;;22.33;22.33;22.80;49.50;;;;;;4995144;28;8913;-76
2022/05/30 05:03:37;;;;;;;;;16.00;16.00;22.80;49.70;;;;;;4987684;28;8814;-76
2022/05/30 05:06:07;;;;;;;;;18.00;18.00;22.80;49.60;;;;;;4995483;28;8814;-77
2022/05/30 05:08:54;;;;;;;;;16.00;16.00;22.90;49.80;;;;;;4994813;28;8787;-74
2022/05/30 05:11:29;;;;;;;;;19.33;19.33;22.80;49.30;;;;;;4975847;28;8876;-75
2022/05/30 05:13:55;;;;;;;;;33.00;33.00;22.80;49.20;;;;;;4975157;28;8899;-76
2022/05/30 05:16:26;;;;;;;;;13.33;13.33;22.80;49.10;;;;;;4976138;28;8765;-76
2022/05/30 05:18:53;;;;;;;;;15.33;15.33;22.70;49.30;;;;;;4976052;28;8939;-76
2022/05/30 05:21:28;;;;;;;;;17.33;17.00;22.70;49.30;;;;;;4976337;28;8773;-76
2022/05/30 05:23:55;;;;;;;;;17.67;17.67;22.60;50.00;;;;;;4975937;28;8922;-76
2022/05/30 05:26:21;;;;;;;;;14.67;14.67;22.50;50.30;;;;;;4976176;28;8778;-76
2022/05/30 05:28:48;;;;;;;;;17.33;17.33;22.50;50.80;;;;;;4975985;28;8770;-76
2022/05/30 05:31:21;;;;;;;;;15.67;15.67;22.50;51.60;;;;;;4980191;28;8775;-76
2022/05/30 05:33:46;;;;;;;;;14.33;14.33;22.40;51.10;;;;;;4994168;28;8771;-78
2022/05/30 05:36:17;;;;;;;;;16.00;16.00;22.40;51.50;;;;;;4993874;28;8771;-76
2022/05/30 05:38:42;;;;;;;;;19.67;19.67;22.50;51.50;;;;;;4993917;28;8799;-78
2022/05/30 05:41:09;;;;;;;;;16.00;16.00;22.40;51.60;;;;;;4994262;28;8771;-78
2022/05/30 05:43:35;;;;;;;;;22.33;22.33;22.50;51.40;;;;;;4993770;28;8826;-78
2022/05/30 05:46:00;;;;;;;;;16.33;16.33;22.50;51.50;;;;;;4994074;28;8783;-78
2022/05/30 05:48:26;;;;;;;;;20.67;20.67;22.50;51.60;;;;;;4994279;28;8833;-79
2022/05/30 05:50:52;;;;;;;;;81.00;70.75;22.50;51.00;;;;;;4993836;28;9483;-77
2022/05/30 05:53:17;;;;;;;;;57.00;48.00;22.50;52.10;;;;;;4993921;28;8763;-76
2022/05/30 05:55:43;;;;;;;;;26.00;26.00;22.60;51.60;;;;;;4993694;28;8759;-75
2022/05/30 05:58:09;;;;;;;;;22.67;22.67;22.70;51.40;;;;;;4993831;28;8775;-76
2022/05/30 06:00:35;;;;;;;;;19.67;19.67;22.60;50.50;;;;;;4994144;28;8779;-77
2022/05/30 06:03:01;;;;;;;;;22.67;22.67;22.70;51.00;;;;;;4994369;28;8810;-76
2022/05/30 06:05:30;;;;;;;;;16.33;16.33;22.80;50.80;;;;;;4995255;28;8770;-76
2022/05/30 06:07:59;;;;;;;;;21.00;21.00;22.90;50.00;;;;;;4995094;28;8841;-76
2022/05/30 06:10:25;;;;;;;;;16.00;16.00;22.90;50.00;;;;;;4994960;28;8793;-76
2022/05/30 06:12:51;;;;;;;;;15.00;15.00;22.80;51.10;;;;;;4992882;28;8901;-77
2022/05/30 06:15:18;;;;;;;;;16.00;16.00;22.80;51.30;;;;;;4994828;28;8775;-77
2022/05/30 06:17:45;;;;;;;;;17.33;17.33;22.90;50.90;;;;;;4994911;28;8843;-76
2022/05/30 06:20:14;;;;;;;;;16.67;16.67;22.90;50.90;;;;;;4995066;28;8770;-76
2022/05/30 06:22:40;;;;;;;;;18.33;18.33;23.00;50.30;;;;;;4993999;28;9428;-75
2022/05/30 06:25:07;;;;;;;;;20.00;20.00;23.00;50.60;;;;;;4992497;28;8798;-75
2022/05/30 06:27:34;;;;;;;;;14.67;14.67;23.10;50.60;;;;;;4992934;28;8825;-75
2022/05/30 06:30:01;;;;;;;;;18.33;18.33;23.00;51.80;;;;;;4990780;28;8799;-75
2022/05/30 06:32:27;;;;;;;;;17.00;17.00;22.90;51.70;;;;;;4993506;28;8787;-75
2022/05/30 06:34:53;;;;;;;;;17.33;17.33;22.90;51.60;;;;;;4993620;28;8794;-76
2022/05/30 06:37:19;;;;;;;;;17.33;17.33;23.00;51.40;;;;;;4993470;28;8783;-75
2022/05/30 06:39:45;;;;;;;;;16.33;16.33;23.10;51.20;;;;;;4993477;28;9519;-75
2022/05/30 06:42:12;;;;;;;;;22.33;22.33;23.10;50.90;;;;;;4992338;28;8814;-74
2022/05/30 06:44:38;;;;;;;;;16.00;16.00;23.10;50.70;;;;;;4993209;28;8787;-75
2022/05/30 06:47:07;;;;;;;;;19.33;19.33;23.30;51.20;;;;;;4993500;28;9502;-74
2022/05/30 06:49:33;;;;;;;;;24.67;24.67;23.40;50.60;;;;;;4995304;28;8845;-74
2022/05/30 06:51:59;;;;;;;;;20.67;20.67;23.50;50.70;;;;;;4996847;28;8850;-74
2022/05/30 06:54:25;;;;;;;;;18.00;18.00;23.60;49.60;;;;;;5013256;28;8873;-74
2022/05/30 06:59:35;;;;;;;;;20.00;20.00;23.90;49.00;;;;;;4998118;28;8759;-74
2022/05/30 07:02:03;;;;;;;;;24.67;24.67;24.00;49.30;;;;;;4998040;28;9494;-75
2022/05/30 07:04:33;;;;;;;;;21.33;20.67;23.80;50.30;;;;;;4998167;28;9460;-74
2022/05/30 07:07:03;;;;;;;;;19.33;19.33;24.20;49.60;;;;;;4998176;28;9430;-75
2022/05/30 07:09:29;;;;;;;;;15.67;15.67;24.50;49.40;;;;;;4998165;28;8786;-74
2022/05/30 07:11:55;;;;;;;;;17.67;17.67;24.70;47.60;;;;;;4997620;28;8830;-74
2022/05/30 07:14:20;;;;;;;;;17.67;17.67;24.80;47.60;;;;;;4997780;28;8889;-75
2022/05/30 07:16:46;;;;;;;;;17.33;17.33;24.80;47.80;;;;;;5013154;28;8810;-74
2022/05/30 07:19:12;;;;;;;;;17.67;17.67;24.90;47.50;;;;;;4997887;28;8767;-75
2022/05/30 07:21:39;;;;;;;;;20.00;20.00;24.90;47.90;;;;;;4997700;28;8771;-74
2022/05/30 07:24:05;;;;;;;;;16.00;16.00;24.80;47.40;;;;;;5012664;28;8908;-74
2022/05/30 07:26:31;;;;;;;;;8.33;8.33;24.70;47.40;;;;;;4997432;28;9451;-74
2022/05/30 07:28:57;;;;;;;;;20.33;20.33;24.70;47.70;;;;;;4997885;28;8775;-74
2022/05/30 07:31:25;;;;;;;;;20.00;20.00;24.60;48.10;;;;;;4997446;28;8803;-75
2022/05/30 07:33:52;;;;;;;;;17.33;17.33;24.60;48.40;;;;;;4997739;28;9451;-74
2022/05/30 07:36:25;;;;;;;;;22.00;22.00;24.30;48.10;;;;;;4997630;28;8767;-74
2022/05/30 07:38:51;;;;;;;;;17.00;17.00;24.20;48.60;;;;;;4997276;28;8783;-75
2022/05/30 07:41:18;;;;;;;;;19.33;19.33;24.30;48.90;;;;;;4997506;28;8804;-74
2022/05/30 07:43:45;;;;;;;;;22.00;22.00;24.30;49.30;;;;;;4997367;28;9575;-74
2022/05/30 07:46:13;;;;;;;;;17.00;17.00;24.60;48.00;;;;;;4996856;28;8774;-74
2022/05/30 07:48:38;;;;;;;;;20.33;20.33;24.90;47.50;;;;;;4997087;28;8787;-75
2022/05/30 07:51:06;;;;;;;;;26.33;26.33;25.30;46.60;;;;;;4996144;28;8820;-75
2022/05/30 07:53:32;;;;;;;;;21.00;21.00;25.40;47.20;;;;;;4997201;28;8801;-75
2022/05/30 07:55:59;;;;;;;;;15.33;15.33;25.20;46.80;;;;;;4997067;28;8809;-75
2022/05/30 07:58:26;;;;;;;;;20.00;20.00;25.00;46.60;;;;;;4997337;28;9489;-75
2022/05/30 08:00:52;;;;;;;;;26.00;26.00;24.90;48.00;;;;;;4996999;28;8793;-75
2022/05/30 08:03:19;;;;;;;;;23.00;23.00;24.90;47.10;;;;;;4996845;28;8814;-75
2022/05/30 08:05:47;;;;;;;;;17.67;17.67;24.90;47.50;;;;;;4996930;28;8774;-75
2022/05/30 08:08:14;;;;;;;;;19.67;19.67;24.90;46.70;;;;;;4997067;28;9538;-74
2022/05/30 08:10:40;;;;;;;;;23.67;23.67;24.90;46.50;;;;;;4996873;28;8810;-74
2022/05/30 08:13:06;;;;;;;;;23.67;23.67;24.90;46.70;;;;;;4996679;28;8835;-74
2022/05/30 08:15:32;;;;;;;;;23.67;23.67;24.90;46.70;;;;;;4997068;28;8798;-75
2022/05/30 08:17:59;;;;;;;;;20.00;20.00;25.10;46.90;;;;;;4996677;28;8782;-75
2022/05/30 08:20:31;;;;;;;;;20.67;20.67;25.20;46.30;;;;;;4996938;28;9002;-74
2022/05/30 08:22:57;;;;;;;;;24.00;24.00;25.30;46.00;;;;;;4996568;28;8771;-75
2022/05/30 08:25:23;;;;;;;;;20.00;20.00;25.60;46.10;;;;;;4996493;28;8767;-75
2022/05/30 08:27:49;;;;;;;;;22.33;22.33;25.50;45.20;;;;;;4996772;28;8779;-74
2022/05/30 08:30:18;;;;;;;;;23.00;23.00;25.00;46.30;;;;;;4995258;28;8906;-75
2022/05/30 08:32:45;;;;;;;;;25.67;25.67;25.00;46.80;;;;;;4996519;28;8775;-75
2022/05/30 08:35:13;;;;;;;;;27.33;27.33;25.40;46.40;;;;;;4996605;28;9471;-74
2022/05/30 08:37:40;;;;;;;;;28.67;28.67;25.40;45.40;;;;;;4995318;28;8814;-74
2022/05/30 08:43:25;;;;;;;;;28.00;28.00;26.30;45.00;;;;;;4996521;28;8834;-75
2022/05/30 08:46:08;;;;;;;;;22.33;22.33;26.30;44.70;;;;;;4995779;28;8799;-74
2022/05/30 08:48:47;;;;;;;;;21.00;21.00;26.20;44.80;;;;;;4996369;28;8786;-75
2022/05/30 08:51:23;;;;;;;;;24.33;24.33;26.20;44.40;;;;;;4996002;28;8787;-74
2022/05/30 08:54:27;;;;;;;;;32.33;31.00;26.10;44.40;;;;;;4996110;28;8763;-75
2022/05/30 08:56:56;;;;;;;;;27.00;27.00;26.40;44.30;;;;;;4994426;28;8791;-75
2022/05/30 08:59:50;;;;;;;;;26.67;26.67;26.60;43.90;;;;;;4995890;28;8759;-75
2022/05/30 09:02:39;;;;;;;;;31.67;31.33;26.30;44.20;;;;;;4995477;28;8922;-75
2022/05/30 09:05:20;;;;;;;;;29.00;29.00;26.30;44.60;;;;;;4995781;28;8802;-75
2022/05/30 09:07:53;;;;;;;;;27.00;27.00;25.70;46.10;;;;;;4996045;28;8881;-74
2022/05/30 09:10:23;;;;;;;;;29.67;29.67;25.90;45.60;;;;;;4995757;28;8759;-75
2022/05/30 09:12:59;;;;;;;;;36.33;33.67;26.40;45.10;;;;;;4994890;28;8818;-73
2022/05/30 09:15:32;;;;;;;;;37.00;33.67;26.40;44.40;;;;;;4995647;28;8770;-75
2022/05/30 09:18:00;;;;;;;;;49.00;42.67;26.70;44.40;;;;;;4995619;28;8790;-75
2022/05/30 09:20:29;;;;;;;;;44.00;38.33;26.90;43.10;;;;;;4995473;28;8771;-75
2022/05/30 09:22:55;;;;;;;;;46.67;39.00;26.80;43.40;;;;;;4995452;28;8771;-75
2022/05/30 09:28:19;;;;;;;;;42.00;37.33;26.90;42.40;;;;;;4995433;28;8767;-75
2022/05/30 09:31:02;;;;;;;;;36.00;34.00;26.80;42.60;;;;;;4995284;28;8885;-74
2022/05/30 09:33:32;;;;;;;;;35.00;33.00;26.70;42.60;;;;;;4995300;28;8759;-74
2022/05/30 09:36:29;;;;;;;;;42.33;38.33;26.90;42.40;;;;;;4995358;28;8869;-75
2022/05/30 09:39:02;;;;;;;;;32.33;31.67;26.90;42.20;;;;;;5009213;28;8791;-75
2022/05/30 09:41:46;;;;;;;;;46.33;40.00;27.20;41.80;;;;;;4994972;28;8755;-75
2022/05/30 09:44:18;;;;;;;;;39.33;34.67;27.80;41.70;;;;;;4995139;28;8821;-75
2022/05/30 09:47:05;;;;;;;;;44.67;39.33;27.90;41.10;;;;;;4995392;28;8956;-75
2022/05/30 09:49:42;;;;;;;;;47.00;41.00;28.00;40.30;;;;;;4995587;28;8775;-75
2022/05/30 09:52:38;;;;;;;;;50.67;42.67;27.90;39.90;;;;;;4995427;28;8809;-75
2022/05/30 09:55:32;;;;;;;;;41.67;37.33;28.00;40.30;;;;;;4995043;28;8862;-75
2022/05/30 09:57:58;;;;;;;;;36.67;34.33;28.10;40.20;;;;;;4994835;28;8755;-75
2022/05/30 10:00:30;;;;;;;;;39.00;35.67;28.10;39.70;;;;;;4994918;28;8874;-74
2022/05/30 10:03:23;;;;;;;;;47.33;41.00;28.00;39.90;;;;;;4994858;28;8771;-75
2022/05/30 10:05:49;;;;;;;;;51.33;42.67;27.90;40.80;;;;;;4994666;28;8767;-74
2022/05/30 10:08:27;;;;;;;;;51.00;43.33;28.10;40.20;;;;;;4994765;28;8775;-74
2022/05/30 10:10:54;;;;;;;;;44.67;39.33;28.50;39.40;;;;;;4994994;28;8759;-75
2022/05/30 10:13:41;;;;;;;;;47.67;41.33;29.10;38.90;;;;;;4994743;28;8854;-74
2022/05/30 10:16:13;;;;;;;;;55.00;45.67;29.30;37.90;;;;;;4994788;28;8799;-74
2022/05/30 10:18:54;;;;;;;;;47.33;41.00;29.00;37.20;;;;;;4994892;28;8802;-74
2022/05/30 10:21:29;;;;;;;;;42.33;37.00;28.40;38.10;;;;;;4994888;28;8794;-74
2022/05/30 10:30:20;;;;;;;;;36.67;34.67;27.40;41.30;;;;;;4998635;28;8775;-75
2022/05/30 10:33:02;;;;;;;;;37.00;34.33;27.70;41.10;;;;;;4998835;28;8782;-74
2022/05/30 10:35:56;;;;;;;;;40.00;36.33;27.80;40.80;;;;;;4998589;28;8901;-75
2022/05/30 10:38:58;;;;;;;;;30.33;30.00;27.70;41.20;;;;;;4998847;28;8786;-74
2022/05/30 10:41:30;;;;;;;;;33.33;32.33;27.50;41.00;;;;;;4998329;28;8763;-74
2022/05/30 10:44:08;;;;;;;;;37.67;34.33;27.10;41.30;;;;;;4998593;28;8841;-74
2022/05/30 10:46:41;;;;;;;;;28.33;28.33;27.00;42.80;;;;;;4998570;28;8762;-74
2022/05/30 10:49:09;;;;;;;;;36.33;33.67;27.30;42.50;;;;;;4998354;28;8783;-74
2022/05/30 10:51:58;;;;;;;;;31.67;30.67;27.80;41.50;;;;;;4998593;28;9452;-74
2022/05/30 10:54:29;;;;;;;;;33.67;31.67;27.90;41.50;;;;;;4997820;28;8786;-76
2022/05/30 10:57:09;;;;;;;;;29.33;29.33;27.70;41.60;;;;;;4997110;28;8795;-76
2022/05/30 10:59:50;;;;;;;;;34.33;32.67;27.30;42.00;;;;;;4994959;28;8775;-76
2022/05/30 11:02:51;;;;;;;;;38.67;35.67;27.30;42.80;;;;;;4997777;28;8782;-77
2022/05/30 11:05:30;;;;;;;;;38.00;34.67;27.60;42.30;;;;;;4960814;28;8881;-76
2022/05/30 11:08:22;;;;;;;;;43.00;38.00;28.10;41.50;;;;;;4995655;28;8813;-77
2022/05/30 11:10:56;;;;;;;;;34.67;33.33;28.90;40.50;;;;;;4996974;28;8775;-76
2022/05/30 11:13:49;;;;;;;;;39.67;36.00;29.50;39.90;;;;;;4996398;28;8845;-76
2022/05/30 11:16:41;;;;;;;;;42.00;37.00;29.70;39.00;;;;;;4994536;28;8853;-76
2022/05/30 11:19:25;;;;;;;;;48.00;40.33;29.50;37.70;;;;;;4995822;28;8771;-76
2022/05/30 11:22:12;;;;;;;;;38.67;35.33;28.80;38.60;;;;;;4995758;28;8798;-76
2022/05/30 11:24:38;;;;;;;;;34.67;33.00;28.60;39.00;;;;;;4993809;28;8807;-76
2022/05/30 11:27:13;;;;;;;;;38.00;35.00;28.30;41.00;;;;;;4996397;28;8781;-76
2022/05/30 11:30:01;;;;;;;;;46.33;39.67;28.30;40.30;;;;;;4992715;28;8756;-76
2022/05/30 11:32:45;;;;;;;;;37.33;34.00;28.40;40.30;;;;;;4994045;28;8793;-75
2022/05/30 11:35:38;;;;;;;;;41.33;37.33;28.50;40.60;;;;;;4993089;28;9747;-74
2022/05/30 11:38:38;;;;;;;;;45.67;39.33;28.20;40.00;;;;;;4988011;28;8868;-74
2022/05/30 11:41:41;;;;;;;;;44.00;38.33;27.90;40.60;;;;;;4994237;28;8775;-73
2022/05/30 11:44:10;;;;;;;;;42.33;37.33;27.90;40.70;;;;;;4995041;28;8884;-75
2022/05/30 11:46:51;;;;;;;;;40.00;36.33;27.80;41.80;;;;;;4989684;28;8797;-76
2022/05/30 11:49:51;;;;;;;;;39.33;36.00;28.00;41.10;;;;;;4987524;28;8771;-73
2022/05/30 11:52:52;;;;;;;;;38.67;35.33;28.00;40.60;;;;;;4977736;28;8816;-75
2022/05/30 11:55:44;;;;;;;;;48.33;41.33;27.90;41.60;;;;;;4994650;28;8805;-73
2022/05/30 11:58:20;;;;;;;;;47.00;40.67;27.80;41.60;;;;;;4977605;28;8785;-73
2022/05/30 12:00:48;;;;;;;;;46.33;39.33;27.60;42.10;;;;;;4977937;28;8785;-74
2022/05/30 12:03:32;;;;;;;;;47.33;41.00;27.60;41.90;;;;;;4996623;28;8841;-75
2022/05/30 12:06:22;;;;;;;;;42.67;38.00;27.40;41.40;;;;;;4997167;28;8901;-75
2022/05/30 12:09:17;;;;;;;;;35.00;33.33;27.20;42.50;;;;;;4997280;28;9479;-75
2022/05/30 12:12:04;;;;;;;;;28.33;28.33;27.00;43.80;;;;;;4975259;28;8836;-80
2022/05/30 12:14:51;;;;;;;;;34.33;33.00;27.30;43.50;;;;;;4995775;28;8822;-77
2022/05/30 12:24:04;;;;;;;;;41.33;37.00;26.30;46.20;;;;;;4977220;28;8821;-76
2022/05/30 12:27:21;;;;;;;;;32.00;31.33;27.20;44.30;;;;;;4977290;28;8801;-76
2022/05/30 12:29:48;;;;;;;;;28.67;28.67;27.80;43.40;;;;;;4898510;29;8909;-75
2022/05/30 12:32:24;;;;;;;;;37.33;34.33;27.60;43.20;;;;;;4901275;29;8920;-74
2022/05/30 12:35:02;;;;;;;;;31.00;30.33;28.20;42.40;;;;;;4917408;29;8809;-74
2022/05/30 12:37:51;;;;;;;;;37.00;34.33;28.40;41.50;;;;;;4917263;29;8787;-75
2022/05/30 12:40:57;;;;;;;;;38.67;35.67;27.80;42.60;;;;;;4917322;29;8803;-74
2022/05/30 12:43:23;;;;;;;;;32.33;31.33;27.40;43.30;;;;;;4914106;29;9473;-78
2022/05/30 12:45:55;;;;;;;;;37.00;34.67;27.00;43.30;;;;;;4916777;29;8795;-78
2022/05/30 12:48:44;;;;;;;;;36.33;34.00;27.10;44.30;;;;;;4916909;29;8805;-80
2022/05/30 12:51:15;;;;;;;;;35.67;33.67;27.30;43.90;;;;;;4917174;29;8812;-76
2022/05/30 12:53:57;;;;;;;;;45.00;39.33;27.10;44.40;;;;;;4917360;29;8824;-79
2022/05/30 12:56:38;;;;;;;;;37.33;35.00;26.70;44.40;;;;;;4917066;29;8781;-82
2022/05/30 12:59:03;;;;;;;;;36.00;34.00;27.10;44.60;;;;;;4917364;29;9470;-79
2022/05/30 13:01:51;;;;;;;;;39.33;35.33;27.50;44.10;;;;;;4917130;29;8792;-85
2022/05/30 13:04:25;;;;;;;;;36.33;34.33;27.30;44.30;;;;;;4897487;28;9479;-77
2022/05/30 13:06:56;;;;;;;;;38.33;35.00;28.10;42.80;;;;;;4986488;28;9472;-75
2022/05/30 13:09:40;;;;;;;;;43.00;37.67;28.60;41.60;;;;;;4995451;28;8795;-77
2022/05/30 13:12:14;;;;;;;;;38.33;35.33;28.80;41.20;;;;;;4993828;28;8841;-77
2022/05/30 13:15:02;;;;;;;;;37.33;34.00;29.00;40.70;;;;;;4994895;28;8825;-76
2022/05/30 13:17:27;;;;;;;;;34.33;32.67;29.40;39.90;;;;;;4995355;28;8794;-81
2022/05/30 13:19:59;;;;;;;;;36.67;34.00;29.50;39.60;;;;;;4995816;28;8789;-80
2022/05/30 13:22:35;;;;;;;;;37.00;34.33;28.80;39.50;;;;;;4995876;28;8872;-79
2022/05/30 13:25:04;;;;;;;;;40.00;36.00;28.50;41.40;;;;;;4995419;28;8891;-79
2022/05/30 13:27:30;;;;;;;;;35.67;34.00;27.60;41.90;;;;;;4992365;28;8834;-79
2022/05/30 13:30:04;;;;;;;;;39.67;35.33;27.20;44.20;;;;;;4976290;28;8777;-80
2022/05/30 13:32:31;;;;;;;;;40.33;36.33;27.30;43.70;;;;;;4975893;28;8809;-78